Presidio of Monterey, California
Current Conditions -  °F | °C
As of 9:54 AM on Friday 19 Dec 2014 (Local Time) from KMRY Reporting Station
Overcast Overcast  
Wind Chill: 55°   Ceiling: 6000
Heat Index: 55°   Visibility: 10mi
Dew Point: 49°   Wind: 3mph
Humidity: 80%   Direction: 40°NE
Pressure: 30.22"   Gusts: NA
Location:  36.5816°N, 121.843°W
Report Text: KMRY 191754Z 04003KT 10SM OVC060 13/09 A3022 RMK AO2 SLP245 T01280094 10133 20106 53020
Loading
Personal Weather Stations






























Interactive Weather Map New forecast layout! Learn more

10-Day Weather Forecast

Advertisements
Track Severe Weather on mobile